Time;durP1;ratioP1;P1;durP2;ratioP2;P2;SDS_P1;SDS_P2;PMS_P1;PMS_P2;Temp;Humidity;BMP_temperature;BMP_pressure;BME280_temperature;BME280_humidity;BME280_pressure;Samples;Min_cycle;Max_cycle;Signal;HPM_P1;HPM_P2
2022/01/11 00:01:33;;;;;;;26.00;17.43;;;;;;;2.71;100.00;101884.16;5093231;28;20192;-77
2022/01/11 00:03:59;;;;;;;34.30;19.07;;;;;;;2.56;100.00;101884.47;5092639;28;20623;-77
2022/01/11 00:06:33;;;;;;;39.13;18.07;;;;;;;2.54;100.00;101888.69;5078622;28;20340;-77
2022/01/11 00:09:07;;;;;;;33.33;21.10;;;;;;;2.47;100.00;101896.13;5093942;28;20207;-77
2022/01/11 00:11:33;;;;;;;33.17;19.27;;;;;;;2.43;100.00;101883.97;5093477;28;20223;-78
2022/01/11 00:14:00;;;;;;;46.43;20.63;;;;;;;2.34;100.00;101884.50;5084382;28;20228;-78
2022/01/11 00:16:26;;;;;;;32.43;20.03;;;;;;;2.29;100.00;101880.84;5092747;28;20238;-78
2022/01/11 00:18:54;;;;;;;46.97;21.40;;;;;;;2.23;100.00;101872.91;5077901;28;20201;-77
2022/01/11 00:21:21;;;;;;;38.03;20.67;;;;;;;2.16;100.00;101874.34;5089934;28;20204;-77
2022/01/11 00:26:31;;;;;;;33.60;20.30;;;;;;;2.28;100.00;101858.47;5086538;28;20234;-77
2022/01/11 00:28:57;;;;;;;41.57;21.53;;;;;;;2.36;100.00;101857.97;5085682;28;20255;-76
2022/01/11 00:31:24;;;;;;;49.23;23.30;;;;;;;2.41;100.00;101859.84;5085086;28;20262;-77
2022/01/11 00:33:51;;;;;;;42.90;21.53;;;;;;;2.44;100.00;101865.09;5085447;28;20231;-77
2022/01/11 00:36:19;;;;;;;43.63;21.60;;;;;;;2.50;100.00;101863.63;5096082;28;20224;-78
2022/01/11 00:38:45;;;;;;;54.67;21.23;;;;;;;2.51;100.00;101862.78;5097696;28;20208;-78
2022/01/11 00:41:14;;;;;;;40.60;21.67;;;;;;;2.56;100.00;101871.59;5094829;28;20219;-77
2022/01/11 00:43:42;;;;;;;51.10;23.53;;;;;;;2.58;100.00;101862.22;5097981;28;20223;-78
2022/01/11 00:46:10;;;;;;;39.83;21.00;;;;;;;2.61;100.00;101865.72;5096051;28;20211;-77
2022/01/11 00:48:39;;;;;;;44.43;22.80;;;;;;;2.66;100.00;101866.78;5085547;28;20630;-77
2022/01/11 00:51:06;;;;;;;62.43;24.47;;;;;;;2.68;100.00;101859.97;5084073;28;20232;-77
2022/01/11 00:53:34;;;;;;;50.67;24.37;;;;;;;2.70;100.00;101856.63;5081553;28;20239;-77
2022/01/11 00:56:00;;;;;;;48.50;24.17;;;;;;;2.73;100.00;101858.44;5089203;28;20257;-77
2022/01/11 00:58:27;;;;;;;57.37;26.07;;;;;;;2.75;100.00;101861.94;5081500;28;20895;-78
2022/01/11 01:00:53;;;;;;;64.47;25.13;;;;;;;2.80;100.00;101863.00;5087113;28;20211;-77
2022/01/11 01:03:20;;;;;;;55.03;24.63;;;;;;;2.90;100.00;101856.47;5076329;28;20197;-78
2022/01/11 01:05:46;;;;;;;51.67;22.50;;;;;;;3.00;100.00;101867.97;5079484;28;20286;-77
2022/01/11 01:08:13;;;;;;;48.57;23.43;;;;;;;3.10;100.00;101876.09;5072938;28;20201;-76
2022/01/11 01:10:46;;;;;;;39.37;20.00;;;;;;;3.23;100.00;101879.97;5076606;28;20212;-78
2022/01/11 01:13:16;;;;;;;31.87;19.17;;;;;;;3.34;100.00;101903.56;5084152;28;20258;-77
2022/01/11 01:15:42;;;;;;;34.33;18.80;;;;;;;3.31;100.00;101916.34;5092823;28;20203;-77
2022/01/11 01:18:11;;;;;;;30.43;20.00;;;;;;;3.26;100.00;101941.13;5092578;28;20277;-77
2022/01/11 01:20:37;;;;;;;37.67;19.73;;;;;;;3.32;100.00;101956.81;5084677;28;20203;-77
2022/01/11 01:23:03;;;;;;;23.00;18.00;;;;;;;3.43;99.70;101976.16;5084206;28;20249;-76
2022/01/11 01:25:30;;;;;;;28.87;17.70;;;;;;;3.42;98.53;102012.22;5083806;28;20255;-77
2022/01/11 01:27:58;;;;;;;27.97;17.43;;;;;;;3.01;97.09;102050.28;5092094;28;20256;-78
2022/01/11 01:30:24;;;;;;;26.33;17.27;;;;;;;2.69;97.04;102080.84;5091718;28;20269;-77
2022/01/11 01:32:52;;;;;;;25.70;17.87;;;;;;;2.46;97.54;102065.34;5084298;28;20200;-77
2022/01/11 01:35:22;;;;;;;35.07;19.50;;;;;;;2.35;98.21;102049.44;5083413;28;20217;-77
2022/01/11 01:37:48;;;;;;;35.90;19.70;;;;;;;2.33;98.71;102032.16;5072878;28;20219;-77
2022/01/11 01:40:17;;;;;;;47.00;20.93;;;;;;;2.31;99.33;102011.50;5079013;28;20201;-76
2022/01/11 01:42:44;;;;;;;36.73;20.03;;;;;;;2.26;99.94;101992.41;5088709;28;20196;-78
2022/01/11 01:45:12;;;;;;;36.40;20.40;;;;;;;2.20;100.00;101981.88;5086761;28;20232;-76
2022/01/11 01:47:39;;;;;;;42.10;21.90;;;;;;;2.26;100.00;101976.06;5089193;28;20270;-78
2022/01/11 01:50:07;;;;;;;26.10;18.87;;;;;;;2.21;100.00;101973.31;5086243;28;20713;-77
2022/01/11 01:52:34;;;;;;;39.33;18.83;;;;;;;2.16;100.00;101978.28;5083782;28;20578;-77
2022/01/11 01:55:01;;;;;;;34.13;20.23;;;;;;;2.22;100.00;101984.47;5092073;28;20216;-78
2022/01/11 01:57:28;;;;;;;46.63;19.67;;;;;;;2.32;100.00;101984.91;5074457;28;20213;-77
2022/01/11 01:59:54;;;;;;;32.13;17.93;;;;;;;2.44;100.00;101993.94;5079811;28;20201;-77
2022/01/11 02:02:22;;;;;;;36.23;17.97;;;;;;;2.51;100.00;101998.53;5072487;28;20198;-76
2022/01/11 02:04:50;;;;;;;20.07;15.87;;;;;;;2.34;99.27;102024.50;5084081;28;20261;-78
2022/01/11 02:07:16;;;;;;;34.67;17.70;;;;;;;2.30;98.40;102050.06;5091561;28;20286;-76
2022/01/11 02:09:42;;;;;;;25.83;16.33;;;;;;;2.37;98.10;102070.13;5083064;28;20269;-78
2022/01/11 02:12:09;;;;;;;21.00;15.17;;;;;;;2.43;97.26;102096.16;5091185;28;20292;-78
2022/01/11 02:14:35;;;;;;;20.67;14.37;;;;;;;2.38;95.91;102131.16;5083249;28;20249;-76
2022/01/11 02:17:02;;;;;;;28.30;15.60;;;;;;;2.36;95.07;102145.69;5091738;28;20249;-77
2022/01/11 02:19:30;;;;;;;18.57;14.80;;;;;;;2.37;94.86;102157.75;5082401;28;20235;-76
2022/01/11 02:21:57;;;;;;;24.00;14.47;;;;;;;2.46;95.39;102160.72;5079661;28;20200;-78
2022/01/11 02:24:24;;;;;;;31.27;16.03;;;;;;;2.52;94.70;102167.84;5087889;28;20224;-77
2022/01/11 02:26:50;;;;;;;30.67;16.57;;;;;;;2.56;95.14;102170.59;5082549;28;20208;-77
2022/01/11 02:29:19;;;;;;;27.37;15.33;;;;;;;2.60;94.64;102174.19;5090903;28;20204;-77
2022/01/11 02:31:45;;;;;;;26.63;15.33;;;;;;;2.69;95.34;102168.50;5082822;28;20820;-76
2022/01/11 02:34:11;;;;;;;26.70;16.90;;;;;;;2.76;94.91;102170.53;5085340;28;20714;-77
2022/01/11 02:36:38;;;;;;;21.10;14.53;;;;;;;2.76;94.91;102181.72;5087397;28;20246;-78
2022/01/11 02:39:06;;;;;;;22.43;14.43;;;;;;;2.83;94.23;102193.16;5083295;28;20204;-77
2022/01/11 02:41:32;;;;;;;19.33;14.80;;;;;;;2.89;93.80;102208.00;5091087;28;20204;-77
2022/01/11 02:44:01;;;;;;;17.60;13.63;;;;;;;2.82;93.53;102222.38;5079484;28;20224;-77
2022/01/11 02:46:28;;;;;;;25.87;14.17;;;;;;;2.87;93.61;102222.53;5086546;28;20201;-77
2022/01/11 02:48:56;;;;;;;23.63;14.60;;;;;;;2.83;93.72;102224.09;5080145;28;20208;-76
2022/01/11 02:51:24;;;;;;;19.60;14.13;;;;;;;2.86;93.74;102221.66;5071004;28;20266;-77
2022/01/11 02:53:53;;;;;;;18.53;13.57;;;;;;;2.78;93.54;102225.63;5089669;28;20318;-77
2022/01/11 02:56:21;;;;;;;24.10;15.97;;;;;;;2.75;94.10;102226.38;5087721;28;20208;-76
2022/01/11 02:58:48;;;;;;;26.77;15.00;;;;;;;2.75;93.75;102217.75;5089180;28;20199;-77
2022/01/11 03:01:15;;;;;;;22.77;16.50;;;;;;;2.52;95.17;102191.91;5082838;28;20196;-77
2022/01/11 03:03:41;;;;;;;25.30;16.00;;;;;;;2.54;95.09;102181.66;5090916;28;20638;-78
2022/01/11 03:06:08;;;;;;;28.43;16.57;;;;;;;2.55;95.54;102180.81;5087567;28;20206;-76
2022/01/11 03:08:36;;;;;;;28.93;16.77;;;;;;;2.51;95.76;102178.94;5090917;28;20613;-77
2022/01/11 03:11:05;;;;;;;29.13;16.83;;;;;;;2.53;95.58;102175.59;5078558;28;20710;-76
2022/01/11 03:13:35;;;;;;;34.73;19.63;;;;;;;2.38;96.06;102174.97;5077860;28;20226;-78
2022/01/11 03:16:02;;;;;;;38.33;19.93;;;;;;;2.17;97.32;102141.44;5082348;28;20205;-78
2022/01/11 03:18:28;;;;;;;40.43;21.03;;;;;;;2.05;98.12;102118.59;5082385;28;20204;-77
2022/01/11 03:20:55;;;;;;;40.43;22.43;;;;;;;2.04;98.80;102100.50;5082365;28;20197;-78
2022/01/11 03:23:22;;;;;;;35.00;20.10;;;;;;;2.11;99.10;102082.81;5090668;28;20193;-77
2022/01/11 03:25:52;;;;;;;37.60;20.60;;;;;;;2.16;98.95;102080.41;5081824;28;20746;-77
2022/01/11 03:28:18;;;;;;;30.33;17.73;;;;;;;2.24;98.55;102094.53;5090633;28;20202;-76
2022/01/11 03:30:46;;;;;;;26.30;16.70;;;;;;;2.29;98.47;102103.31;5082232;28;20197;-78
2022/01/11 03:33:13;;;;;;;22.07;16.93;;;;;;;2.31;97.40;102122.28;5083026;28;20200;-76
2022/01/11 03:35:41;;;;;;;33.27;17.40;;;;;;;2.39;97.48;102138.94;5090267;28;20261;-77
2022/01/11 03:38:09;;;;;;;29.57;17.43;;;;;;;2.41;96.99;102149.31;5081941;28;20205;-78
2022/01/11 03:40:36;;;;;;;30.53;16.53;;;;;;;2.32;96.23;102165.28;5083737;28;20197;-78
2022/01/11 03:43:04;;;;;;;24.53;16.07;;;;;;;2.39;96.69;102158.69;5089301;28;20196;-77
2022/01/11 03:45:30;;;;;;;24.07;15.67;;;;;;;2.46;96.26;102165.88;5084763;28;20239;-77
2022/01/11 03:48:00;;;;;;;23.73;15.73;;;;;;;2.56;96.40;102172.28;5079718;28;20201;-77
2022/01/11 03:50:29;;;;;;;32.80;16.27;;;;;;;2.63;95.50;102186.31;5085169;28;20265;-77
2022/01/11 03:53:00;;;;;;;24.27;15.23;;;;;;;2.68;95.22;102196.00;5076962;28;20307;-77
2022/01/11 03:55:44;;;;;;;18.87;15.47;;;;;;;2.59;94.37;102214.53;5087103;28;20212;-76
2022/01/11 03:58:11;;;;;;;22.30;16.50;;;;;;;2.64;94.38;102219.91;5093580;28;20249;-76
2022/01/11 04:00:37;;;;;;;21.17;16.07;;;;;;;2.57;94.33;102225.59;5087868;28;20193;-77
2022/01/11 04:03:05;;;;;;;24.60;15.50;;;;;;;2.57;93.10;102256.53;5083808;28;20254;-76
2022/01/11 04:05:32;;;;;;;20.57;15.10;;;;;;;2.46;91.85;102280.94;5089061;28;20701;-76
2022/01/11 04:07:58;;;;;;;19.33;15.30;;;;;;;2.35;92.36;102295.94;5074681;28;20257;-77
2022/01/11 04:10:25;;;;;;;21.33;14.30;;;;;;;2.30;91.65;102295.75;5094052;28;20192;-75
2022/01/11 04:12:52;;;;;;;15.80;14.20;;;;;;;2.24;91.53;102298.06;5086269;28;20282;-78
2022/01/11 04:15:19;;;;;;;24.03;15.50;;;;;;;2.18;92.02;102305.47;5085143;28;20220;-76
2022/01/11 04:17:46;;;;;;;24.37;15.30;;;;;;;2.11;91.69;102303.44;5094095;28;20242;-78
2022/01/11 04:20:14;;;;;;;19.50;14.20;;;;;;;2.06;92.02;102307.50;5085091;28;20685;-78
2022/01/11 04:22:41;;;;;;;30.40;17.90;;;;;;;1.97;92.49;102307.97;5094130;28;20276;-78
2022/01/11 04:25:08;;;;;;;21.37;14.77;;;;;;;2.10;92.62;102288.78;5092693;28;20232;-78
2022/01/11 04:27:35;;;;;;;19.77;14.07;;;;;;;2.13;90.83;102318.16;5091903;28;20269;-78
2022/01/11 04:30:01;;;;;;;27.47;15.43;;;;;;;2.09;90.28;102341.13;5093322;28;20208;-77
2022/01/11 04:32:28;;;;;;;20.93;14.93;;;;;;;1.98;91.18;102338.97;5081852;28;20220;-77
2022/01/11 04:34:55;;;;;;;21.53;14.87;;;;;;;1.94;91.45;102331.00;5081848;28;20714;-77
2022/01/11 04:37:23;;;;;;;19.50;14.47;;;;;;;1.97;91.12;102320.84;5089479;28;20196;-77
2022/01/11 04:39:49;;;;;;;19.77;14.37;;;;;;;2.00;90.75;102328.69;5088180;28;20625;-77
2022/01/11 04:42:16;;;;;;;16.00;13.47;;;;;;;1.97;90.39;102347.47;5084290;28;20197;-77
2022/01/11 04:44:42;;;;;;;16.47;13.50;;;;;;;1.90;89.28;102371.19;5080154;28;20228;-77
2022/01/11 04:47:09;;;;;;;20.23;12.73;;;;;;;1.73;90.02;102378.09;5090147;28;20392;-77
2022/01/11 04:49:35;;;;;;;18.53;12.67;;;;;;;1.61;90.49;102362.06;5081381;28;20200;-78
2022/01/11 04:52:02;;;;;;;23.00;12.77;;;;;;;1.68;90.02;102364.09;5088003;28;20633;-77
2022/01/11 04:54:29;;;;;;;18.77;13.73;;;;;;;1.64;90.21;102367.34;5087784;28;20702;-77
2022/01/11 04:56:56;;;;;;;16.13;12.73;;;;;;;1.49;90.10;102377.78;5084296;28;20209;-78
2022/01/11 04:59:22;;;;;;;16.27;13.70;;;;;;;1.41;90.44;102366.22;5085731;28;20193;-78
2022/01/11 05:01:49;;;;;;;21.70;15.60;;;;;;;1.49;91.16;102346.03;5082893;28;20196;-77
2022/01/11 05:04:15;;;;;;;21.57;14.40;;;;;;;1.53;91.49;102335.06;5081942;28;20703;-77
2022/01/11 05:06:42;;;;;;;33.10;14.30;;;;;;;1.56;91.01;102330.06;5082171;28;20287;-77
2022/01/11 05:09:08;;;;;;;29.50;15.97;;;;;;;1.59;91.03;102333.66;5081110;28;20254;-76
2022/01/11 05:11:36;;;;;;;22.60;16.40;;;;;;;1.59;91.26;102335.38;5083379;28;20216;-77
2022/01/11 05:14:02;;;;;;;20.90;15.77;;;;;;;1.58;91.48;102341.31;5082754;28;20219;-76
2022/01/11 05:16:28;;;;;;;18.93;14.47;;;;;;;1.60;92.12;102334.53;5082750;28;20663;-76
2022/01/11 05:18:55;;;;;;;29.37;15.90;;;;;;;1.61;91.89;102331.16;5083030;28;20200;-79
2022/01/11 05:21:22;;;;;;;25.40;15.33;;;;;;;1.57;91.00;102334.41;5081754;28;20197;-77
2022/01/11 05:23:48;;;;;;;30.60;14.77;;;;;;;1.51;91.67;102340.13;5081917;28;20251;-77
2022/01/11 05:26:15;;;;;;;15.43;13.47;;;;;;;1.37;91.74;102348.88;5091543;28;20234;-77
2022/01/11 05:28:42;;;;;;;13.47;12.27;;;;;;;1.27;92.17;102334.66;5092599;28;20199;-77
2022/01/11 05:31:09;;;;;;;15.60;14.10;;;;;;;1.32;91.99;102329.75;5092378;28;20200;-77
2022/01/11 05:33:35;;;;;;;20.10;13.67;;;;;;;1.25;92.33;102325.09;5083670;28;20702;-78
2022/01/11 05:36:02;;;;;;;19.30;14.07;;;;;;;1.28;92.56;102330.41;5083562;28;20560;-77
2022/01/11 05:38:28;;;;;;;14.37;13.07;;;;;;;1.26;92.54;102330.31;5080870;28;20201;-77
2022/01/11 05:40:56;;;;;;;14.70;13.00;;;;;;;1.19;92.25;102339.44;5087749;28;20249;-77
2022/01/11 05:43:22;;;;;;;18.67;12.57;;;;;;;1.18;91.37;102349.63;5083863;28;20241;-77
2022/01/11 05:45:50;;;;;;;18.53;12.50;;;;;;;1.23;91.71;102349.84;5102784;22;20229;-81
2022/01/11 05:48:16;;;;;;;15.67;13.30;;;;;;;1.28;91.65;102345.84;5064413;28;20212;-79
2022/01/11 05:50:43;;;;;;;16.13;14.03;;;;;;;1.34;91.82;102346.13;5083988;28;20212;-81
2022/01/11 05:53:10;;;;;;;15.77;13.93;;;;;;;1.34;91.87;102339.28;5085878;28;20224;-80
2022/01/11 05:55:36;;;;;;;18.73;13.30;;;;;;;1.41;91.38;102342.16;5088469;28;20229;-80
2022/01/11 05:58:02;;;;;;;15.27;13.20;;;;;;;1.41;92.21;102344.75;5069039;28;20676;-80
2022/01/11 06:00:29;;;;;;;14.40;13.10;;;;;;;1.43;91.76;102349.19;5059278;28;20201;-81
2022/01/11 06:02:58;;;;;;;18.73;12.87;;;;;;;1.39;91.74;102348.13;5064878;28;20193;-80
2022/01/11 06:05:25;;;;;;;16.50;12.53;;;;;;;1.38;91.74;102348.94;5072267;28;20787;-79
2022/01/11 06:07:51;;;;;;;20.10;12.60;;;;;;;1.35;91.50;102355.63;5056353;28;20206;-78
2022/01/11 06:10:18;;;;;;;20.80;12.20;;;;;;;1.41;91.81;102352.44;5055585;28;20817;-80
2022/01/11 06:12:44;;;;;;;19.13;11.90;;;;;;;1.46;92.17;102359.59;5073474;28;20711;-80
2022/01/11 06:15:11;;;;;;;14.50;11.83;;;;;;;1.51;91.70;102353.00;5074069;28;20217;-81
2022/01/11 06:17:37;;;;;;;13.80;11.60;;;;;;;1.50;91.29;102365.78;5058596;28;20197;-80
2022/01/11 06:20:07;;;;;;;16.53;12.30;;;;;;;1.46;91.47;102374.16;5064242;28;20196;-81
2022/01/11 06:22:33;;;;;;;17.27;12.67;;;;;;;1.47;92.04;102361.38;5066623;28;20192;-81
2022/01/11 06:25:03;;;;;;;19.20;13.63;;;;;;;1.53;91.65;102365.94;5075449;28;20205;-81
2022/01/11 06:27:29;;;;;;;21.97;14.17;;;;;;;1.52;92.82;102352.19;5061885;28;20189;-80
2022/01/11 06:29:56;;;;;;;30.07;16.17;;;;;;;1.59;93.25;102351.69;5063720;28;20246;-80
2022/01/11 06:32:22;;;;;;;27.70;14.83;;;;;;;1.63;93.24;102331.25;5053278;28;20251;-79
2022/01/11 06:34:49;;;;;;;19.50;14.00;;;;;;;1.63;93.00;102337.28;5057295;28;20714;-80
2022/01/11 06:37:16;;;;;;;19.43;12.83;;;;;;;1.67;92.80;102336.59;5059472;28;20643;-80
2022/01/11 06:39:42;;;;;;;13.67;11.97;;;;;;;1.72;92.04;102350.56;5077071;28;20545;-79
2022/01/11 06:42:09;;;;;;;12.87;11.57;;;;;;;1.73;92.07;102374.63;5076802;28;20200;-78
2022/01/11 06:44:37;;;;;;;13.17;11.93;;;;;;;1.70;91.87;102388.22;5072399;28;20254;-80
2022/01/11 06:47:04;;;;;;;13.30;11.13;;;;;;;1.73;91.30;102387.50;5055712;28;20287;-79
2022/01/11 06:49:31;;;;;;;14.17;12.80;;;;;;;1.68;90.56;102400.13;5062497;28;20271;-80
2022/01/11 06:51:57;;;;;;;18.30;11.23;;;;;;;1.65;91.02;102406.84;5056898;28;20206;-79
2022/01/11 06:54:25;;;;;;;16.20;12.10;;;;;;;1.66;90.77;102400.88;5066332;28;20197;-79
2022/01/11 06:56:52;;;;;;;14.50;12.03;;;;;;;1.67;90.86;102405.25;5076382;28;20221;-79
2022/01/11 06:59:18;;;;;;;28.00;12.87;;;;;;;1.69;91.36;102404.50;5068693;28;20197;-79
2022/01/11 07:01:45;;;;;;;23.50;12.77;;;;;;;1.71;90.96;102407.16;5059556;28;20228;-81
2022/01/11 07:04:11;;;;;;;18.03;13.20;;;;;;;1.64;91.68;102402.50;5061755;28;20679;-80
2022/01/11 07:06:38;;;;;;;25.13;14.97;;;;;;;1.65;91.33;102412.88;5062391;28;20221;-80
2022/01/11 07:09:04;;;;;;;24.40;15.03;;;;;;;1.63;91.07;102418.75;5066744;28;20212;-80
2022/01/11 07:11:32;;;;;;;23.77;14.87;;;;;;;1.55;90.63;102426.97;5060956;28;20255;-80
2022/01/11 07:14:01;;;;;;;22.67;13.97;;;;;;;1.57;91.07;102427.94;5064511;28;20218;-81
2022/01/11 07:16:27;;;;;;;31.13;17.03;;;;;;;1.41;91.43;102437.38;5059070;28;20280;-80
2022/01/11 07:18:54;;;;;;;18.90;14.40;;;;;;;0.90;92.37;102411.63;5056726;28;20232;-80
2022/01/11 07:21:20;;;;;;;14.53;13.03;;;;;;;0.80;93.79;102371.69;5074701;28;20201;-80
2022/01/11 07:23:47;;;;;;;14.07;12.50;;;;;;;0.89;93.59;102368.72;5075740;28;20193;-81
2022/01/11 07:26:13;;;;;;;16.97;13.40;;;;;;;0.68;93.37;102377.09;5071920;28;20220;-81
2022/01/11 07:28:41;;;;;;;15.37;13.70;;;;;;;0.65;93.17;102379.47;5071779;28;20196;-81
2022/01/11 07:31:07;;;;;;;14.63;13.27;;;;;;;0.58;92.87;102388.56;5058853;28;20213;-79
2022/01/11 07:33:34;;;;;;;37.67;23.17;;;;;;;-0.13;93.90;102381.25;5059985;28;20287;-80
2022/01/11 07:36:00;;;;;;;17.07;15.07;;;;;;;-0.47;95.10;102355.38;5062999;28;20257;-81
2022/01/11 07:38:26;;;;;;;21.90;14.27;;;;;;;-0.64;95.82;102324.50;5059935;28;20201;-80
2022/01/11 07:40:53;;;;;;;87.87;14.87;;;;;;;-0.70;97.08;102288.25;5069200;28;20206;-80
2022/01/11 07:43:19;;;;;;;36.23;15.03;;;;;;;-0.54;98.21;102256.66;5067547;28;20198;-81
2022/01/11 07:45:47;;;;;;;33.47;13.50;;;;;;;-0.57;98.91;102236.00;5077595;28;20233;-80
2022/01/11 07:48:14;;;;;;;56.70;14.97;;;;;;;-0.58;98.76;102233.34;5067019;28;20201;-80
2022/01/11 07:50:40;;;;;;;92.27;16.03;;;;;;;-0.55;99.20;102223.25;5066569;28;20197;-81
2022/01/11 07:53:06;;;;;;;48.50;15.67;;;;;;;-0.36;99.88;102210.59;5066194;28;20279;-80
2022/01/11 07:55:34;;;;;;;31.50;15.60;;;;;;;-0.12;99.99;102197.31;5060334;28;20221;-80
2022/01/11 07:58:00;;;;;;;75.20;17.07;;;;;;;0.13;99.56;102200.38;5071702;28;20271;-81
2022/01/11 08:00:27;;;;;;;46.50;16.80;;;;;;;0.29;99.38;102202.06;5065293;28;20197;-80
2022/01/11 08:02:54;;;;;;;67.33;15.33;;;;;;;0.48;99.24;102210.72;5055769;28;20201;-79
2022/01/11 08:05:21;;;;;;;41.95;16.27;;;;;;;0.58;98.44;102225.81;5058059;28;20462;-80
2022/01/11 08:07:47;;;;;;;17.63;15.60;;;;;;;0.63;98.31;102249.16;5060137;28;20206;-80
2022/01/11 08:10:18;;;;;;;50.30;15.10;;;;;;;0.77;98.17;102264.47;5062193;28;20263;-79
2022/01/11 08:12:44;;;;;;;55.30;16.43;;;;;;;0.72;97.21;102299.34;5067811;28;20257;-79
2022/01/11 08:15:11;;;;;;;65.07;19.87;;;;;;;0.69;96.47;102311.13;5064856;28;20768;-80
2022/01/11 08:17:37;;;;;;;23.80;17.07;;;;;;;0.72;96.28;102325.03;5063816;28;20198;-79
2022/01/11 08:20:07;;;;;;;34.37;17.00;;;;;;;0.81;96.22;102332.31;5065000;28;20193;-79
2022/01/11 08:22:33;;;;;;;62.83;15.87;;;;;;;0.85;95.44;102336.81;5073234;28;20729;-78
2022/01/11 08:25:00;;;;;;;24.93;14.60;;;;;;;0.95;96.06;102336.50;5055317;28;20198;-79
2022/01/11 08:27:26;;;;;;;30.33;12.80;;;;;;;0.96;96.03;102343.41;5073577;28;20729;-79
2022/01/11 08:29:52;;;;;;;18.57;13.57;;;;;;;1.04;95.49;102360.91;5062846;28;20210;-78
2022/01/11 08:32:19;;;;;;;28.17;16.83;;;;;;;1.12;95.64;102368.19;5057487;28;20213;-77
2022/01/11 08:34:45;;;;;;;40.47;15.10;;;;;;;1.10;95.05;102366.38;5055704;28;20197;-79
2022/01/11 08:37:14;;;;;;;30.63;14.33;;;;;;;1.06;96.29;102349.91;5056802;28;20232;-78
2022/01/11 08:39:42;;;;;;;15.77;14.17;;;;;;;1.17;96.45;102341.03;5062065;28;20255;-78
2022/01/11 08:42:12;;;;;;;17.63;15.00;;;;;;;1.25;96.29;102345.66;5058050;28;20709;-79
2022/01/11 08:44:38;;;;;;;21.93;14.67;;;;;;;1.30;95.24;102352.81;5076455;28;20219;-79
2022/01/11 08:47:05;;;;;;;33.37;15.67;;;;;;;1.31;96.03;102351.13;5067123;28;20229;-78
2022/01/11 08:49:31;;;;;;;24.00;15.90;;;;;;;1.36;95.62;102329.97;5052528;28;20252;-78
2022/01/11 08:51:58;;;;;;;14.43;12.80;;;;;;;1.44;95.83;102338.06;5058267;28;20259;-77
2022/01/11 08:54:25;;;;;;;14.60;13.10;;;;;;;1.51;95.27;102354.69;5064459;28;20222;-78
2022/01/11 08:56:53;;;;;;;13.43;11.77;;;;;;;1.57;95.37;102349.84;5066099;28;20773;-79
2022/01/11 08:59:19;;;;;;;13.17;11.77;;;;;;;1.64;96.09;102348.44;5058291;28;20212;-78
2022/01/11 09:01:46;;;;;;;40.13;14.33;;;;;;;1.69;96.41;102345.28;5066036;28;20201;-79
2022/01/11 09:04:12;;;;;;;39.13;13.70;;;;;;;1.67;96.55;102325.44;5069833;28;20227;-79
2022/01/11 09:06:38;;;;;;;19.47;13.27;;;;;;;1.73;97.11;102323.16;5063275;28;20226;-79
2022/01/11 09:09:05;;;;;;;13.77;12.37;;;;;;;1.82;97.19;102321.00;5055928;28;20202;-78
2022/01/11 09:11:33;;;;;;;18.23;13.50;;;;;;;1.91;96.46;102333.44;5057848;28;20243;-79
2022/01/11 09:13:59;;;;;;;14.00;12.57;;;;;;;1.96;96.89;102339.66;5058017;28;20218;-79
2022/01/11 09:16:26;;;;;;;14.73;12.63;;;;;;;1.97;96.19;102344.91;5058666;28;20291;-78
2022/01/11 09:18:52;;;;;;;16.33;13.30;;;;;;;2.02;95.57;102357.09;5071490;28;20197;-78
2022/01/11 09:21:20;;;;;;;23.27;13.17;;;;;;;2.07;96.19;102358.22;5058053;28;20696;-79
2022/01/11 09:23:47;;;;;;;33.37;13.97;;;;;;;2.07;95.45;102355.66;5065879;28;20217;-79
2022/01/11 09:26:13;;;;;;;14.67;12.97;;;;;;;2.12;95.77;102372.19;5060337;28;20233;-79
2022/01/11 09:28:41;;;;;;;45.90;14.40;;;;;;;2.17;95.41;102381.00;5063858;28;20247;-79
2022/01/11 09:31:08;;;;;;;52.07;12.83;;;;;;;1.63;94.08;102411.03;5052796;28;20272;-78
2022/01/11 09:33:36;;;;;;;47.87;15.13;;;;;;;1.30;94.97;102393.97;5063823;28;20706;-79
2022/01/11 09:36:03;;;;;;;27.77;15.23;;;;;;;1.36;96.10;102372.81;5058484;28;20294;-77
2022/01/11 09:38:29;;;;;;;40.13;16.70;;;;;;;1.48;96.22;102350.25;5059179;28;20259;-78
2022/01/11 09:40:58;;;;;;;44.27;14.53;;;;;;;1.56;96.00;102343.78;5064207;28;20289;-79
2022/01/11 09:43:26;;;;;;;29.13;16.13;;;;;;;1.63;96.20;102347.56;5057957;28;20621;-79
2022/01/11 09:45:55;;;;;;;17.83;14.67;;;;;;;1.75;96.64;102347.28;5061585;28;20233;-79
2022/01/11 09:48:23;;;;;;;20.93;14.50;;;;;;;1.85;96.45;102351.19;5061887;28;20224;-79
2022/01/11 09:50:50;;;;;;;14.97;13.00;;;;;;;1.99;96.00;102360.44;5062895;28;20248;-78
2022/01/11 09:53:16;;;;;;;15.87;13.17;;;;;;;2.12;95.34;102367.03;5055656;28;20217;-78
2022/01/11 09:55:44;;;;;;;14.73;13.23;;;;;;;2.21;96.29;102356.28;5057326;28;20271;-79
2022/01/11 09:58:11;;;;;;;18.67;14.10;;;;;;;2.29;95.54;102360.97;5061956;28;20206;-79
2022/01/11 10:00:38;;;;;;;17.63;14.43;;;;;;;2.36;95.40;102362.16;5063019;28;20197;-78
2022/01/11 10:03:06;;;;;;;13.93;12.53;;;;;;;2.45;95.55;102371.97;5051611;28;20203;-79
2022/01/11 10:05:35;;;;;;;15.87;14.17;;;;;;;2.52;94.32;102381.78;5057876;28;20271;-79
2022/01/11 10:08:01;;;;;;;31.40;15.10;;;;;;;2.57;94.55;102400.88;5055605;28;20579;-79
2022/01/11 10:10:28;;;;;;;14.30;12.90;;;;;;;2.65;94.19;102398.66;5065209;28;20197;-78
2022/01/11 10:12:58;;;;;;;14.83;12.87;;;;;;;2.71;93.74;102407.53;5073888;28;20204;-79
2022/01/11 10:15:28;;;;;;;15.67;14.17;;;;;;;2.74;93.50;102411.97;5062792;28;20222;-79
2022/01/11 10:17:55;;;;;;;19.03;12.43;;;;;;;2.78;93.23;102419.91;5073374;28;20209;-79
2022/01/11 10:20:25;;;;;;;23.53;14.40;;;;;;;2.78;93.77;102417.34;5053402;28;20201;-79
2022/01/11 10:22:53;;;;;;;15.60;14.00;;;;;;;2.80;94.04;102406.22;5067791;28;20235;-79
2022/01/11 10:25:20;;;;;;;15.50;13.50;;;;;;;2.83;93.80;102409.78;5065260;28;20723;-79
2022/01/11 10:27:55;;;;;;;14.63;13.10;;;;;;;2.91;93.71;102403.28;5066128;28;20196;-79
2022/01/11 10:30:23;;;;;;;13.80;12.43;;;;;;;2.97;93.63;102415.56;5065391;28;20205;-79
2022/01/11 10:32:51;;;;;;;15.10;13.60;;;;;;;2.98;92.89;102418.22;5063104;28;20699;-78
2022/01/11 10:35:20;;;;;;;14.67;12.87;;;;;;;3.00;93.17;102420.88;5057302;28;20233;-79
2022/01/11 10:37:50;;;;;;;14.87;12.83;;;;;;;3.05;93.21;102426.22;5067730;28;20239;-80
2022/01/11 10:40:20;;;;;;;21.35;15.82;;;;;;;3.07;93.19;102416.84;5068701;28;20468;-78
2022/01/11 10:42:49;;;;;;;15.93;12.37;;;;;;;3.02;93.02;102429.56;5055042;28;20204;-79
2022/01/11 10:45:18;;;;;;;13.87;12.57;;;;;;;3.01;93.01;102425.19;5064210;28;20251;-80
2022/01/11 10:47:47;;;;;;;13.67;12.30;;;;;;;3.07;92.66;102434.91;5061957;28;20197;-78
2022/01/11 10:50:19;;;;;;;12.67;11.37;;;;;;;3.08;92.37;102440.16;5058819;28;20201;-80
2022/01/11 10:52:46;;;;;;;12.77;11.43;;;;;;;3.11;93.11;102447.13;5066601;28;20202;-79
2022/01/11 10:55:19;;;;;;;12.10;10.90;;;;;;;3.14;92.79;102455.03;5070758;28;20228;-80
2022/01/11 10:57:51;;;;;;;12.33;10.80;;;;;;;3.18;92.27;102450.06;5054804;28;20250;-79
2022/01/11 11:00:22;;;;;;;16.13;12.63;;;;;;;3.22;92.18;102461.41;5065565;28;20200;-79
2022/01/11 11:02:52;;;;;;;15.33;13.87;;;;;;;3.30;91.44;102472.94;5053251;28;20206;-79
2022/01/11 11:05:25;;;;;;;34.20;16.43;;;;;;;3.31;91.26;102481.56;5067091;28;20221;-79
2022/01/11 11:08:00;;;;;;;59.53;15.53;;;;;;;3.01;91.76;102491.41;5051621;28;20700;-79
2022/01/11 11:10:41;;;;;;;40.07;14.33;;;;;;;2.71;92.38;102477.16;5059074;28;20268;-79
2022/01/11 11:13:10;;;;;;;71.60;16.23;;;;;;;2.51;93.37;102437.56;5061242;28;20216;-78
2022/01/11 11:15:40;;;;;;;15.67;14.13;;;;;;;2.63;94.35;102398.59;5062833;28;20256;-79
2022/01/11 11:18:20;;;;;;;64.60;17.17;;;;;;;2.77;94.74;102391.47;5060849;28;20202;-79
2022/01/11 11:20:47;;;;;;;15.40;13.60;;;;;;;2.87;94.97;102377.28;5061873;28;20224;-80